Time;durP1;ratioP1;P1;durP2;ratioP2;P2;SDS_P1;SDS_P2;PMS_P1;PMS_P2;Temp;Humidity;BMP_temperature;BMP_pressure;BME280_temperature;BME280_humidity;BME280_pressure;Samples;Min_cycle;Max_cycle;Signal;HPM_P1;HPM_P2
2021/04/11 00:02:14;;;;;;;5.57;4.22;;;9.20;77.10;;;;;;6222158;28;20050;-74
2021/04/11 00:05:18;;;;;;;6.50;4.45;;;9.20;77.30;;;;;;6222515;28;20081;-75
2021/04/11 00:08:20;;;;;;;3.78;3.35;;;9.20;77.20;;;;;;6222010;28;20100;-75
2021/04/11 00:11:22;;;;;;;5.28;3.78;;;9.20;77.60;;;;;;6239526;28;20049;-74
2021/04/11 00:14:24;;;;;;;6.32;2.83;;;9.00;77.90;;;;;;6247232;28;20141;-75
2021/04/11 00:17:25;;;;;;;4.20;3.78;;;8.90;78.40;;;;;;6246612;28;20045;-76
2021/04/11 00:20:27;;;;;;;7.93;3.88;;;8.80;78.80;;;;;;6246450;28;20124;-75
2021/04/11 00:23:29;;;;;;;3.97;3.58;;;8.70;79.40;;;;;;6246507;28;20045;-75
2021/04/11 00:26:30;;;;;;;3.88;3.53;;;8.60;79.70;;;;;;6246790;28;20140;-75
2021/04/11 00:29:32;;;;;;;4.28;3.65;;;8.50;80.20;;;;;;6246752;28;20407;-75
2021/04/11 00:32:33;;;;;;;4.53;3.30;;;8.50;80.60;;;;;;6251645;28;20045;-75
2021/04/11 00:35:35;;;;;;;4.97;3.15;;;8.40;80.90;;;;;;6251932;28;20172;-75
2021/04/11 00:38:36;;;;;;;5.30;3.92;;;8.30;81.10;;;;;;6251595;28;20171;-75
2021/04/11 00:41:42;;;;;;;6.32;4.22;;;8.30;81.40;;;;;;6251280;28;20143;-76
2021/04/11 00:44:45;;;;;;;4.15;3.75;;;8.30;81.60;;;;;;6247042;28;20140;-75
2021/04/11 00:47:46;;;;;;;5.13;4.72;;;8.30;81.70;;;;;;6251165;28;20527;-75
2021/04/11 00:50:53;;;;;;;7.22;4.97;;;8.20;82.10;;;;;;6254176;28;20141;-75
2021/04/11 00:53:57;;;;;;;6.18;5.45;;;8.20;82.60;;;;;;6253280;28;20095;-75
2021/04/11 00:57:00;;;;;;;5.15;4.65;;;8.30;83.70;;;;;;6251010;28;20503;-75
2021/04/11 01:00:05;;;;;;;7.72;3.78;;;8.60;83.30;;;;;;6250800;28;20120;-75
2021/04/11 01:03:07;;;;;;;4.38;3.38;;;8.80;82.10;;;;;;6251230;28;20136;-75
2021/04/11 01:06:11;;;;;;;5.03;4.30;;;8.80;81.40;;;;;;6250976;28;20069;-75
2021/04/11 01:09:18;;;;;;;3.35;3.05;;;8.70;81.40;;;;;;6250662;28;20136;-75
2021/04/11 01:12:22;;;;;;;5.13;4.40;;;8.60;81.60;;;;;;6250946;28;20050;-74
2021/04/11 01:15:31;;;;;;;7.72;5.10;;;8.40;81.70;;;;;;6250506;28;20053;-74
2021/04/11 01:18:33;;;;;;;5.03;3.95;;;8.40;82.60;;;;;;6251035;28;20080;-75
2021/04/11 01:21:42;;;;;;;7.07;4.22;;;8.30;82.40;;;;;;6250083;28;20038;-75
2021/04/11 01:24:46;;;;;;;8.73;4.32;;;8.20;82.70;;;;;;6250354;28;20131;-75
2021/04/11 01:27:49;;;;;;;5.80;3.88;;;8.20;83.10;;;;;;6250495;28;20045;-75
2021/04/11 01:30:54;;;;;;;7.90;4.43;;;8.10;83.40;;;;;;6250374;28;20511;-75
2021/04/11 01:33:56;;;;;;;7.68;4.57;;;8.10;83.70;;;;;;6249941;28;20084;-75
2021/04/11 01:36:59;;;;;;;6.07;4.63;;;8.00;84.00;;;;;;6249795;28;20123;-74
2021/04/11 01:40:01;;;;;;;7.35;5.45;;;8.00;84.30;;;;;;6250286;28;20124;-74
2021/04/11 01:43:04;;;;;;;6.30;4.32;;;8.00;84.40;;;;;;6249774;28;20049;-75
2021/04/11 01:46:08;;;;;;;6.30;5.43;;;7.90;84.70;;;;;;6249761;28;20140;-75
2021/04/11 01:49:09;;;;;;;4.47;4.07;;;7.90;85.10;;;;;;6249410;28;20533;-75
2021/04/11 01:52:15;;;;;;;4.57;4.18;;;7.80;85.30;;;;;;6251026;28;20191;-76
2021/04/11 01:55:18;;;;;;;8.68;7.22;;;7.80;85.60;;;;;;6250840;28;20101;-76
2021/04/11 01:58:20;;;;;;;7.40;4.85;;;7.80;85.80;;;;;;6250334;28;20137;-76
2021/04/11 02:01:24;;;;;;;8.80;6.70;;;7.80;85.90;;;;;;6249412;28;20052;-76
2021/04/11 02:04:25;;;;;;;8.27;4.18;;;7.70;86.20;;;;;;6249492;28;20056;-77
2021/04/11 02:07:27;;;;;;;6.00;3.65;;;7.70;86.30;;;;;;6249318;28;20051;-76
2021/04/11 02:10:32;;;;;;;5.22;3.33;;;7.60;86.70;;;;;;6249630;28;20046;-76
2021/04/11 02:13:36;;;;;;;8.82;4.07;;;7.60;86.40;;;;;;6249585;28;20124;-76
2021/04/11 02:16:38;;;;;;;4.70;3.80;;;7.60;86.50;;;;;;6249215;28;20080;-77
2021/04/11 02:19:39;;;;;;;6.90;5.45;;;7.50;86.70;;;;;;6248915;28;20507;-75
2021/04/11 02:22:42;;;;;;;6.63;5.47;;;7.40;87.10;;;;;;6249207;28;20069;-76
2021/04/11 02:25:46;;;;;;;5.43;4.10;;;7.40;87.40;;;;;;6249258;28;20072;-76
2021/04/11 02:28:48;;;;;;;4.72;4.32;;;7.40;87.60;;;;;;6248591;28;20053;-77
2021/04/11 02:31:49;;;;;;;7.80;4.68;;;7.50;88.00;;;;;;6249242;28;20076;-76
2021/04/11 02:34:51;;;;;;;6.00;4.75;;;7.50;88.10;;;;;;6249266;28;20049;-76
2021/04/11 02:37:56;;;;;;;5.15;4.65;;;7.60;88.00;;;;;;6248816;28;20080;-76
2021/04/11 02:40:59;;;;;;;5.70;4.82;;;7.60;87.90;;;;;;6249014;28;20095;-76
2021/04/11 02:44:00;;;;;;;4.95;4.45;;;7.60;87.90;;;;;;6248149;28;20630;-74
2021/04/11 02:47:03;;;;;;;5.82;4.18;;;7.60;87.90;;;;;;6249040;28;20415;-76
2021/04/11 02:50:06;;;;;;;5.97;4.53;;;7.60;88.10;;;;;;6248010;28;20069;-76
2021/04/11 02:53:12;;;;;;;7.88;4.30;;;7.60;88.20;;;;;;6247654;28;20563;-76
2021/04/11 02:56:16;;;;;;;4.68;4.25;;;7.60;88.30;;;;;;6248111;28;20128;-76
2021/04/11 02:59:18;;;;;;;5.43;4.68;;;7.60;88.20;;;;;;6248297;28;20085;-76
2021/04/11 03:02:21;;;;;;;7.85;5.03;;;7.60;88.30;;;;;;6248361;28;20050;-76
2021/04/11 03:05:24;;;;;;;5.78;4.07;;;7.60;88.60;;;;;;6248019;28;20128;-76
2021/04/11 03:08:30;;;;;;;4.38;3.97;;;7.50;88.80;;;;;;6247957;28;20136;-76
2021/04/11 03:11:36;;;;;;;6.28;5.03;;;7.60;89.00;;;;;;6248050;28;20049;-75
2021/04/11 03:14:40;;;;;;;4.07;3.65;;;7.60;89.10;;;;;;6248254;28;20054;-75
2021/04/11 03:17:43;;;;;;;9.60;4.75;;;7.70;89.00;;;;;;6247956;28;20105;-77
2021/04/11 03:20:46;;;;;;;4.85;4.35;;;7.80;88.80;;;;;;6247872;28;20065;-78
2021/04/11 03:23:47;;;;;;;12.00;4.72;;;8.00;88.80;;;;;;6249449;28;20128;-76
2021/04/11 03:26:54;;;;;;;5.38;4.25;;;8.10;88.70;;;;;;6248554;28;20073;-74
2021/04/11 03:30:00;;;;;;;6.85;4.22;;;8.20;88.70;;;;;;6247443;28;20126;-78
2021/04/11 03:33:05;;;;;;;6.25;3.45;;;8.30;88.10;;;;;;6247757;28;20129;-75
2021/04/11 03:36:08;;;;;;;7.55;4.53;;;8.40;87.90;;;;;;6248360;28;20045;-78
2021/04/11 03:39:11;;;;;;;4.80;4.38;;;8.50;87.90;;;;;;6250353;28;20136;-77
2021/04/11 03:42:17;;;;;;;5.95;3.67;;;8.60;87.80;;;;;;6248413;28;20119;-76
2021/04/11 03:45:20;;;;;;;4.63;4.10;;;8.70;87.80;;;;;;6250079;28;20100;-78
2021/04/11 03:48:29;;;;;;;6.25;4.30;;;8.80;87.70;;;;;;6249971;28;20418;-78
2021/04/11 03:51:33;;;;;;;6.35;4.00;;;8.80;87.60;;;;;;6248029;28;20092;-77
2021/04/11 03:54:38;;;;;;;5.13;3.92;;;8.80;87.50;;;;;;6249147;28;20164;-77
2021/04/11 03:57:49;;;;;;;6.70;3.85;;;8.90;87.60;;;;;;6248767;28;20132;-77
2021/04/11 04:00:56;;;;;;;4.82;3.90;;;8.90;87.80;;;;;;6249388;28;20046;-77
2021/04/11 04:04:02;;;;;;;4.27;3.63;;;9.00;87.90;;;;;;6249018;28;20172;-78
2021/04/11 04:07:12;;;;;;;5.65;4.13;;;9.00;88.00;;;;;;6250262;28;20143;-77
2021/04/11 04:10:15;;;;;;;4.00;3.60;;;9.00;88.20;;;;;;6252320;28;20423;-78
2021/04/11 04:13:41;;;;;;;6.85;4.57;;;8.90;88.50;;;;;;6252372;28;20120;-78
2021/04/11 04:16:55;;;;;;;5.45;3.97;;;8.80;88.70;;;;;;6244060;28;20503;-77
2021/04/11 04:20:04;;;;;;;5.50;3.88;;;8.70;89.30;;;;;;6253313;28;20073;-77
2021/04/11 04:23:12;;;;;;;4.03;3.67;;;8.60;89.60;;;;;;6254397;28;20049;-78
2021/04/11 04:26:30;;;;;;;4.90;3.75;;;8.50;90.00;;;;;;6254640;28;20049;-78
2021/04/11 04:29:39;;;;;;;3.30;3.00;;;8.40;90.10;;;;;;6254331;28;20133;-78
2021/04/11 04:33:09;;;;;;;4.40;3.88;;;8.30;90.20;;;;;;6253535;28;20312;-78
2021/04/11 04:36:21;;;;;;;4.18;3.40;;;8.30;90.60;;;;;;6253733;28;20251;-78
2021/04/11 04:39:34;;;;;;;5.15;3.63;;;8.30;90.50;;;;;;6253834;28;20081;-78
2021/04/11 04:42:46;;;;;;;3.58;3.28;;;8.20;90.50;;;;;;6277422;28;20076;-77
2021/04/11 04:46:01;;;;;;;5.13;3.60;;;8.20;90.70;;;;;;6278072;28;20049;-76
2021/04/11 04:49:10;;;;;;;4.35;3.63;;;8.20;90.80;;;;;;6274614;28;20046;-76
2021/04/11 04:52:17;;;;;;;4.55;3.83;;;8.30;90.70;;;;;;6275430;28;20036;-77
2021/04/11 04:55:28;;;;;;;4.65;3.83;;;8.30;90.70;;;;;;6277384;28;20026;-77
2021/04/11 04:58:33;;;;;;;4.50;3.58;;;8.40;90.80;;;;;;6278626;28;20057;-77
2021/04/11 05:01:38;;;;;;;4.03;3.42;;;8.40;90.80;;;;;;6277427;28;20076;-76
2021/04/11 05:04:45;;;;;;;6.80;3.90;;;8.50;90.70;;;;;;6267794;28;20084;-77
2021/04/11 05:07:52;;;;;;;4.68;4.15;;;8.50;90.70;;;;;;6248044;28;20124;-75
2021/04/11 05:11:07;;;;;;;4.65;4.25;;;8.40;90.80;;;;;;6249156;28;20087;-77
2021/04/11 05:14:12;;;;;;;5.32;4.70;;;8.40;90.70;;;;;;6251026;28;20515;-77
2021/04/11 05:17:20;;;;;;;3.95;3.65;;;8.30;91.10;;;;;;6254220;28;20096;-77
2021/04/11 05:20:26;;;;;;;5.53;4.90;;;8.40;91.10;;;;;;6258299;28;20182;-78
2021/04/11 05:23:31;;;;;;;3.97;3.53;;;8.50;90.90;;;;;;6259131;28;20108;-78
2021/04/11 05:26:42;;;;;;;3.47;3.10;;;8.60;90.80;;;;;;6259536;28;20049;-76
2021/04/11 05:29:48;;;;;;;6.30;2.78;;;8.70;90.70;;;;;;6255172;28;20041;-78
2021/04/11 05:32:52;;;;;;;4.32;3.72;;;8.80;90.50;;;;;;6255707;28;20124;-77
2021/04/11 05:36:03;;;;;;;6.13;3.70;;;8.90;90.40;;;;;;6254398;28;20125;-77
2021/04/11 05:39:14;;;;;;;3.53;3.00;;;8.90;90.30;;;;;;6257783;28;20068;-78
2021/04/11 05:42:19;;;;;;;4.18;3.80;;;9.00;90.30;;;;;;6255035;28;20084;-77
2021/04/11 05:45:25;;;;;;;6.95;4.10;;;9.00;90.30;;;;;;6253656;28;20136;-78
2021/04/11 05:48:34;;;;;;;4.35;3.95;;;9.10;90.30;;;;;;6254263;28;20077;-77
2021/04/11 05:51:39;;;;;;;6.15;3.38;;;9.20;90.20;;;;;;6255528;28;20077;-78
2021/04/11 05:54:43;;;;;;;3.83;3.45;;;9.40;90.00;;;;;;6252207;28;20139;-76
2021/04/11 05:57:48;;;;;;;4.13;3.33;;;9.50;89.70;;;;;;6256263;28;20065;-78
2021/04/11 06:00:54;;;;;;;3.13;2.65;;;9.70;89.10;;;;;;6254830;28;20065;-78
2021/04/11 06:04:02;;;;;;;3.75;2.53;;;9.90;88.80;;;;;;6245555;28;20060;-76
2021/04/11 06:07:11;;;;;;;5.57;3.20;;;10.10;86.70;;;;;;6252499;28;20069;-78
2021/04/11 06:10:17;;;;;;;2.40;2.20;;;10.50;85.90;;;;;;6242772;28;20149;-78
2021/04/11 06:13:23;;;;;;;5.32;2.10;;;10.80;84.30;;;;;;6234321;28;20125;-79
2021/04/11 06:16:27;;;;;;;6.57;2.10;;;11.30;82.00;;;;;;6256204;28;20061;-78
2021/04/11 06:19:29;;;;;;;5.78;1.92;;;11.70;80.10;;;;;;6256605;28;20080;-78
2021/04/11 06:22:36;;;;;;;2.72;2.45;;;11.90;78.30;;;;;;6241816;28;20537;-78
2021/04/11 06:25:41;;;;;;;3.35;2.67;;;12.10;77.70;;;;;;6227581;28;20543;-76
2021/04/11 06:28:49;;;;;;;2.92;2.67;;;12.20;76.90;;;;;;6227253;28;20068;-76
2021/04/11 06:31:57;;;;;;;3.80;3.08;;;12.30;75.60;;;;;;6226556;28;20069;-76
2021/04/11 06:35:02;;;;;;;10.05;7.07;;;12.50;75.10;;;;;;6227198;28;20055;-78
2021/04/11 06:38:09;;;;;;;5.68;3.78;;;12.70;74.30;;;;;;6225346;28;20517;-75
2021/04/11 06:41:26;;;;;;;4.65;4.35;;;12.80;73.30;;;;;;6225115;28;20069;-76
2021/04/11 06:44:48;;;;;;;3.10;2.80;;;13.10;72.40;;;;;;6225416;28;20129;-76
2021/04/11 06:48:25;;;;;;;3.60;2.40;;;13.40;71.30;;;;;;6226435;28;20069;-76
2021/04/11 06:51:44;;;;;;;3.67;2.15;;;13.70;70.30;;;;;;6224915;28;20092;-78
2021/04/11 06:55:01;;;;;;;4.45;2.63;;;13.90;68.90;;;;;;6226025;28;20045;-76
2021/04/11 06:58:11;;;;;;;4.00;2.60;;;14.10;68.10;;;;;;6225452;28;20415;-77
2021/04/11 07:01:38;;;;;;;3.65;3.08;;;14.30;67.30;;;;;;6224226;28;20045;-76
2021/04/11 07:05:00;;;;;;;3.53;2.90;;;14.30;67.10;;;;;;6225710;28;20100;-76
2021/04/11 07:08:48;;;;;;;8.65;5.80;;;14.50;67.00;;;;;;6223910;28;20527;-77
2021/04/11 07:12:27;;;;;;;5.53;4.95;;;14.50;66.60;;;;;;6224365;28;20121;-76
2021/04/11 07:16:01;;;;;;;6.75;2.95;;;14.50;66.50;;;;;;6224091;28;20490;-76
2021/04/11 07:19:28;;;;;;;6.95;4.90;;;14.60;66.60;;;;;;6209849;28;20081;-76
2021/04/11 07:22:57;;;;;;;17.17;15.52;;;14.70;66.80;;;;;;6204840;28;20080;-76
2021/04/11 07:26:37;;;;;;;9.18;8.38;;;14.80;66.50;;;;;;6224196;28;20052;-77
2021/04/11 07:29:57;;;;;;;12.45;11.35;;;15.00;65.70;;;;;;6216014;28;20049;-77
2021/04/11 07:33:38;;;;;;;7.97;5.65;;;15.20;64.90;;;;;;6222926;28;20809;-76
2021/04/11 07:37:07;;;;;;;7.30;6.80;;;15.40;64.50;;;;;;6174990;28;20511;-77
2021/04/11 07:40:19;;;;;;;7.38;4.13;;;15.60;63.60;;;;;;6223136;28;20075;-77
2021/04/11 07:43:42;;;;;;;2.85;2.33;;;15.80;62.90;;;;;;6223236;28;20077;-76
2021/04/11 07:46:53;;;;;;;3.10;2.85;;;15.80;62.70;;;;;;6223634;28;20486;-77
2021/04/11 07:50:29;;;;;;;2.88;2.28;;;15.70;62.80;;;;;;6223108;28;20136;-77
2021/04/11 07:54:00;;;;;;;2.90;2.33;;;15.70;62.90;;;;;;6224410;28;20042;-77
2021/04/11 07:57:22;;;;;;;5.55;2.38;;;15.80;63.00;;;;;;6223062;28;20081;-77
2021/04/11 08:00:37;;;;;;;6.13;2.38;;;15.90;62.40;;;;;;6222742;28;20149;-76
2021/04/11 08:03:59;;;;;;;2.00;1.70;;;16.30;61.30;;;;;;6223611;28;20129;-76
2021/04/11 08:07:25;;;;;;;6.10;5.60;;;16.60;60.70;;;;;;6223879;28;20096;-77
2021/04/11 08:10:55;;;;;;;6.15;5.55;;;16.80;59.80;;;;;;6223995;28;20053;-76
2021/04/11 08:14:08;;;;;;;3.10;2.80;;;17.10;61.30;;;;;;6236131;28;20128;-77
2021/04/11 08:17:25;;;;;;;4.20;2.78;;;17.40;58.80;;;;;;6248426;28;20132;-76
2021/04/11 08:20:56;;;;;;;5.78;3.13;;;17.40;58.30;;;;;;6247318;28;20045;-75
2021/04/11 08:24:25;;;;;;;3.88;1.95;;;17.60;57.20;;;;;;6216635;28;20064;-76
2021/04/11 08:27:54;;;;;;;1.90;1.52;;;17.90;55.70;;;;;;6246946;28;20049;-76
2021/04/11 08:31:07;;;;;;;4.10;1.25;;;18.00;55.00;;;;;;6247186;28;20085;-77
2021/04/11 08:34:33;;;;;;;2.85;1.40;;;18.10;54.00;;;;;;6246916;28;20514;-77
2021/04/11 08:38:09;;;;;;;2.05;1.55;;;18.20;53.50;;;;;;6246919;28;20136;-75
2021/04/11 08:41:41;;;;;;;2.45;1.40;;;18.40;53.20;;;;;;6247436;28;20049;-76
2021/04/11 08:45:02;;;;;;;1.77;0.90;;;18.50;52.50;;;;;;6246539;28;20069;-77
2021/04/11 08:48:22;;;;;;;1.27;1.17;;;18.60;51.90;;;;;;6246722;28;20116;-77
2021/04/11 08:51:32;;;;;;;1.60;1.20;;;18.80;51.40;;;;;;6248788;28;20126;-77
2021/04/11 08:54:48;;;;;;;1.85;1.20;;;19.00;50.90;;;;;;6252787;28;20128;-76
2021/04/11 08:58:06;;;;;;;1.70;1.30;;;19.40;50.00;;;;;;6251523;28;20115;-76
2021/04/11 09:01:16;;;;;;;1.40;1.20;;;19.80;49.20;;;;;;6251861;28;20049;-77
2021/04/11 09:04:23;;;;;;;3.63;1.77;;;20.10;48.30;;;;;;6252433;28;20048;-77
2021/04/11 09:07:47;;;;;;;3.47;1.33;;;20.30;47.70;;;;;;6251978;28;20132;-76
2021/04/11 09:11:05;;;;;;;2.80;1.42;;;20.40;47.10;;;;;;6251716;28;20076;-77
2021/04/11 09:14:36;;;;;;;5.60;5.13;;;20.40;47.00;;;;;;6251184;28;20448;-77
2021/04/11 09:18:03;;;;;;;9.55;7.22;;;20.40;47.20;;;;;;6251087;28;20115;-76
2021/04/11 09:21:15;;;;;;;3.25;2.53;;;20.30;47.30;;;;;;6223799;28;20125;-77
2021/04/11 09:24:20;;;;;;;11.52;10.43;;;20.10;47.80;;;;;;6251311;28;20072;-77
2021/04/11 09:27:59;;;;;;;7.10;6.40;;;20.20;47.80;;;;;;6251867;28;20057;-75
2021/04/11 09:31:23;;;;;;;3.72;3.30;;;20.70;47.80;;;;;;6251620;28;20053;-77
2021/04/11 09:34:53;;;;;;;1.95;1.55;;;21.10;46.50;;;;;;6251416;28;20081;-76
2021/04/11 09:38:29;;;;;;;3.42;2.20;;;21.20;45.60;;;;;;6250850;28;20132;-77
2021/04/11 09:41:54;;;;;;;2.63;0.75;;;20.90;46.10;;;;;;6250303;28;20125;-76
2021/04/11 09:45:12;;;;;;;2.28;1.63;;;20.70;45.40;;;;;;6250715;28;20053;-77
2021/04/11 09:48:32;;;;;;;2.70;2.50;;;20.30;45.40;;;;;;6250736;28;20121;-77
2021/04/11 09:51:50;;;;;;;27.20;24.63;;;19.90;47.50;;;;;;6250956;28;20052;-77
2021/04/11 09:55:01;;;;;;;15.82;14.32;;;19.70;48.80;;;;;;6251040;28;20085;-77
2021/04/11 09:58:38;;;;;;;6.32;5.63;;;19.50;49.60;;;;;;6250680;28;20045;-76
2021/04/11 10:01:49;;;;;;;3.35;2.25;;;19.40;50.10;;;;;;6250289;28;20124;-77
2021/04/11 10:05:03;;;;;;;3.80;2.47;;;19.30;50.40;;;;;;6250354;28;20116;-77
2021/04/11 10:08:21;;;;;;;8.18;1.80;;;19.10;50.70;;;;;;6249962;28;20679;-77
2021/04/11 10:11:32;;;;;;;5.82;2.92;;;18.80;50.60;;;;;;6250227;28;20092;-77
2021/04/11 10:14:50;;;;;;;2.88;1.92;;;18.50;50.90;;;;;;6232568;28;20124;-77
2021/04/11 10:18:20;;;;;;;4.35;1.50;;;18.20;51.30;;;;;;6225002;28;20046;-77
2021/04/11 10:21:28;;;;;;;2.45;1.15;;;18.10;51.00;;;;;;6225036;28;20056;-77
2021/04/11 10:24:47;;;;;;;2.20;1.75;;;17.90;51.30;;;;;;6225040;28;20042;-76
2021/04/11 10:27:52;;;;;;;;;;;17.80;51.30;;;;;;6225467;28;20121;-76
2021/04/11 10:31:02;;;;;;;1.38;1.05;;;17.60;51.60;;;;;;6225467;28;20059;-77
2021/04/11 10:34:12;;;;;;;3.65;1.90;;;17.50;53.30;;;;;;6225026;28;20128;-76
2021/04/11 10:37:21;;;;;;;4.40;1.52;;;17.40;54.30;;;;;;6224796;28;20129;-77
2021/04/11 10:40:39;;;;;;;5.97;2.55;;;17.40;54.90;;;;;;6224457;28;20068;-76
2021/04/11 10:44:01;;;;;;;2.77;1.60;;;17.40;53.70;;;;;;6223954;28;20546;-76
2021/04/11 10:47:30;;;;;;;2.45;1.88;;;17.50;53.80;;;;;;6225246;28;20141;-76
2021/04/11 10:50:40;;;;;;;3.38;2.03;;;17.60;53.80;;;;;;6224494;28;20129;-77
2021/04/11 10:53:55;;;;;;;3.72;1.67;;;17.80;54.20;;;;;;6224075;28;20133;-77
2021/04/11 10:57:16;;;;;;;3.20;1.20;;;18.20;52.90;;;;;;6223785;28;20779;-76
2021/04/11 11:00:28;;;;;;;7.93;1.60;;;18.90;51.60;;;;;;6223531;28;20066;-77
2021/04/11 11:04:08;;;;;;;7.93;3.97;;;19.60;49.50;;;;;;6223585;28;20046;-76
2021/04/11 11:07:35;;;;;;;11.43;7.68;;;19.80;49.90;;;;;;6215315;28;20137;-76
2021/04/11 11:10:59;;;;;;;8.63;5.32;;;20.20;49.20;;;;;;6224311;28;20053;-77
2021/04/11 11:14:12;;;;;;;12.05;9.00;;;20.80;48.20;;;;;;6223283;28;20073;-76
2021/04/11 11:17:36;;;;;;;7.57;6.60;;;21.00;47.40;;;;;;6223736;28;20064;-76
2021/04/11 11:20:49;;;;;;;10.65;4.53;;;20.80;46.60;;;;;;6223040;28;20518;-77
2021/04/11 11:24:21;;;;;;;12.02;10.82;;;20.70;48.30;;;;;;6223715;28;20042;-76
2021/04/11 11:27:45;;;;;;;24.52;19.88;;;20.80;47.30;;;;;;6223266;28;20581;-77
2021/04/11 11:31:31;;;;;;;10.32;3.28;;;21.10;49.50;;;;;;6223216;28;20109;-76
2021/04/11 11:34:50;;;;;;;3.95;1.98;;;21.10;46.90;;;;;;6208719;28;20089;-77
2021/04/11 11:38:00;;;;;;;5.40;2.67;;;21.10;46.80;;;;;;6223222;28;20507;-77
2021/04/11 11:41:10;;;;;;;2.67;2.05;;;21.10;46.80;;;;;;6223034;28;20143;-77
2021/04/11 11:44:14;;;;;;;3.25;2.83;;;20.80;47.10;;;;;;6223094;28;20499;-77
2021/04/11 11:47:24;;;;;;;8.88;3.42;;;20.60;47.50;;;;;;6222997;28;20144;-77
2021/04/11 11:50:29;;;;;;;3.05;2.13;;;20.70;47.90;;;;;;6223681;28;20144;-76
2021/04/11 11:53:35;;;;;;;6.50;2.88;;;21.20;46.80;;;;;;6223171;28;20550;-77
2021/04/11 11:56:42;;;;;;;3.15;1.65;;;21.60;46.30;;;;;;6223380;28;20045;-77
2021/04/11 11:59:49;;;;;;;8.57;3.40;;;22.00;45.30;;;;;;6222404;28;20198;-77
2021/04/11 12:03:03;;;;;;;5.35;1.75;;;22.20;44.70;;;;;;6223438;28;20050;-77
2021/04/11 12:06:10;;;;;;;2.42;1.73;;;22.20;44.40;;;;;;6222487;28;20515;-77
2021/04/11 12:09:17;;;;;;;3.05;1.30;;;22.10;45.40;;;;;;6222742;28;20054;-77
2021/04/11 12:12:25;;;;;;;2.13;1.55;;;22.10;44.60;;;;;;6222555;28;20046;-78
2021/04/11 12:15:30;;;;;;;2.50;1.73;;;21.90;44.50;;;;;;6223495;28;20056;-76
2021/04/11 12:18:35;;;;;;;1.85;1.10;;;21.70;44.80;;;;;;6224158;28;20046;-77
2021/04/11 12:21:42;;;;;;;1.73;0.98;;;21.50;45.10;;;;;;6223363;28;20052;-77
2021/04/11 12:24:53;;;;;;;3.17;1.73;;;21.20;45.80;;;;;;6222619;28;20188;-77
2021/04/11 12:28:08;;;;;;;4.18;1.35;;;21.20;46.20;;;;;;6223796;28;20529;-77
2021/04/11 12:31:26;;;;;;;3.83;1.50;;;21.30;45.50;;;;;;6222975;28;20407;-77
2021/04/11 12:34:40;;;;;;;3.45;2.08;;;21.30;45.50;;;;;;6222846;28;20052;-77
2021/04/11 12:37:49;;;;;;;5.97;1.25;;;21.40;45.40;;;;;;6222186;28;20077;-77
2021/04/11 12:41:00;;;;;;;1.00;0.90;;;21.50;45.20;;;;;;6222894;28;20065;-77
2021/04/11 12:44:07;;;;;;;3.40;1.75;;;21.60;45.10;;;;;;6221734;28;20468;-77
2021/04/11 12:47:23;;;;;;;2.90;1.90;;;21.80;44.50;;;;;;6223339;28;20137;-77
2021/04/11 12:50:30;;;;;;;1.30;0.80;;;22.10;45.50;;;;;;6223098;28;20493;-77
2021/04/11 12:53:44;;;;;;;3.25;1.08;;;22.30;43.70;;;;;;6224027;28;20079;-77
2021/04/11 12:56:55;;;;;;;1.55;1.23;;;22.10;43.90;;;;;;6223009;28;20133;-78
2021/04/11 13:00:02;;;;;;;4.00;1.15;;;21.90;44.30;;;;;;6224326;28;20046;-77
2021/04/11 13:03:13;;;;;;;1.30;1.15;;;21.70;44.50;;;;;;6224186;28;20560;-77
2021/04/11 13:06:19;;;;;;;2.97;1.30;;;21.60;44.90;;;;;;6224453;28;20069;-78
2021/04/11 13:09:42;;;;;;;1.75;1.65;;;21.60;44.80;;;;;;6224861;28;20046;-78
2021/04/11 13:12:50;;;;;;;1.08;0.70;;;21.60;44.40;;;;;;6218843;28;20176;-77
2021/04/11 13:15:58;;;;;;;1.42;0.88;;;21.40;44.70;;;;;;6248969;28;20133;-78
2021/04/11 13:19:07;;;;;;;1.35;0.90;;;21.30;45.90;;;;;;6249380;28;20562;-78
2021/04/11 13:22:12;;;;;;;2.88;1.15;;;21.10;45.60;;;;;;6249504;28;20133;-78
2021/04/11 13:25:22;;;;;;;3.63;1.23;;;21.10;45.80;;;;;;6249545;28;20128;-78
2021/04/11 13:28:26;;;;;;;1.88;1.10;;;20.90;46.00;;;;;;6248920;28;20386;-78
2021/04/11 13:31:44;;;;;;;3.92;1.10;;;20.60;46.50;;;;;;6248806;28;20057;-78
2021/04/11 13:34:58;;;;;;;3.40;1.10;;;20.20;47.40;;;;;;6249012;28;20045;-77
2021/04/11 13:38:01;;;;;;;1.65;1.35;;;19.70;48.30;;;;;;6252154;28;20128;-77
2021/04/11 13:41:09;;;;;;;3.90;1.20;;;19.30;49.60;;;;;;6251450;28;20053;-76
2021/04/11 13:44:28;;;;;;;3.28;1.60;;;18.80;51.10;;;;;;6249512;28;20405;-76
2021/04/11 13:47:44;;;;;;;6.63;1.88;;;18.50;52.60;;;;;;6249994;28;20061;-76
2021/04/11 13:50:57;;;;;;;4.03;1.58;;;18.30;53.10;;;;;;6250147;28;20135;-76
2021/04/11 13:54:07;;;;;;;3.95;3.50;;;18.20;54.00;;;;;;6274854;22;587214;-75
2021/04/11 13:57:37;;;;;;;4.03;2.55;;;18.00;55.00;;;;;;6274347;28;20051;-76
2021/04/11 14:00:47;;;;;;;3.05;1.95;;;17.90;55.70;;;;;;6274253;28;20133;-76
2021/04/11 14:03:57;;;;;;;3.13;2.15;;;17.90;55.90;;;;;;6274024;28;20044;-76
2021/04/11 14:07:08;;;;;;;2.42;2.10;;;17.90;55.50;;;;;;6274292;28;20161;-76
2021/04/11 14:10:18;;;;;;;3.42;1.88;;;17.90;55.80;;;;;;6273841;28;20592;-75
2021/04/11 14:13:25;;;;;;;2.58;1.67;;;17.80;56.30;;;;;;6273496;28;20573;-76
2021/04/11 14:16:43;;;;;;;3.03;1.52;;;17.70;56.70;;;;;;6274000;28;20068;-75
2021/04/11 14:19:53;;;;;;;1.52;1.30;;;17.60;57.30;;;;;;6273404;28;20041;-75
2021/04/11 14:23:00;;;;;;;1.52;1.42;;;17.40;57.90;;;;;;6274309;28;20135;-75
2021/04/11 14:26:09;;;;;;;1.27;1.17;;;17.20;59.00;;;;;;6273567;28;20049;-75
2021/04/11 14:29:18;;;;;;;2.30;1.58;;;17.10;60.40;;;;;;6273531;28;20186;-74
2021/04/11 14:32:26;;;;;;;3.70;1.83;;;16.90;63.70;;;;;;6273293;28;20135;-74
2021/04/11 14:35:33;;;;;;;1.75;1.42;;;16.70;64.20;;;;;;6273326;28;20053;-75
2021/04/11 14:38:40;;;;;;;1.52;1.42;;;16.50;66.60;;;;;;6274042;28;20060;-75
2021/04/11 14:41:44;;;;;;;2.78;2.47;;;16.30;67.60;;;;;;6272863;28;20557;-75
2021/04/11 14:44:53;;;;;;;3.63;2.75;;;16.10;69.10;;;;;;6273159;28;20135;-75
2021/04/11 14:47:58;;;;;;;4.50;3.70;;;15.80;70.40;;;;;;6272460;28;20095;-75
2021/04/11 14:51:22;;;;;;;5.13;4.65;;;15.50;72.20;;;;;;6272986;28;20045;-74
2021/04/11 14:54:31;;;;;;;10.20;8.07;;;15.20;73.80;;;;;;6273052;28;20484;-75
2021/04/11 14:57:38;;;;;;;8.13;6.07;;;15.00;76.50;;;;;;6272633;28;20150;-74
2021/04/11 15:00:57;;;;;;;6.07;5.47;;;14.70;79.00;;;;;;6272384;28;20083;-74
2021/04/11 15:04:20;;;;;;;5.43;3.00;;;14.40;80.90;;;;;;6272555;28;20124;-74
2021/04/11 15:07:28;;;;;;;2.75;2.45;;;14.20;82.70;;;;;;6247794;28;20457;-75
2021/04/11 15:10:34;;;;;;;6.38;3.95;;;13.90;84.30;;;;;;6248193;28;20128;-75
2021/04/11 15:13:43;;;;;;;5.82;4.85;;;13.70;86.00;;;;;;6247565;28;20049;-75
2021/04/11 15:16:52;;;;;;;7.45;6.78;;;13.50;87.70;;;;;;6255335;28;20041;-75
2021/04/11 15:19:59;;;;;;;5.28;4.88;;;13.40;89.00;;;;;;6273011;28;20056;-74
2021/04/11 15:23:08;;;;;;;8.27;7.68;;;13.20;90.30;;;;;;6272666;28;20045;-75
2021/04/11 15:26:17;;;;;;;7.85;7.25;;;13.10;91.00;;;;;;6271636;28;20048;-74
2021/04/11 15:29:25;;;;;;;12.15;11.10;;;13.00;91.70;;;;;;6271656;28;20040;-75
2021/04/11 15:32:34;;;;;;;7.70;7.03;;;13.00;92.60;;;;;;6274594;28;20079;-75
2021/04/11 15:35:51;;;;;;;5.85;5.35;;;12.90;92.90;;;;;;6274501;28;20050;-75
2021/04/11 15:39:00;;;;;;;5.07;4.57;;;12.80;93.70;;;;;;6272155;28;20410;-75
2021/04/11 15:42:19;;;;;;;4.10;2.47;;;12.70;94.40;;;;;;6271323;28;20116;-75
2021/04/11 15:45:36;;;;;;;3.90;3.67;;;12.60;95.10;;;;;;6271665;28;20123;-75
2021/04/11 15:48:42;;;;;;;5.95;5.53;;;12.50;95.90;;;;;;6271817;28;20102;-74
2021/04/11 15:51:51;;;;;;;3.75;3.33;;;12.40;96.90;;;;;;6271578;28;20599;-75
2021/04/11 15:55:06;;;;;;;5.63;3.85;;;12.30;97.40;;;;;;6272039;28;20049;-75
2021/04/11 15:58:16;;;;;;;4.00;2.55;;;12.10;98.00;;;;;;6271256;28;20502;-74
2021/04/11 16:01:23;;;;;;;3.63;3.30;;;12.20;98.60;;;;;;6271193;28;20446;-75
2021/04/11 16:04:32;;;;;;;3.15;2.85;;;12.20;99.00;;;;;;6271329;28;20033;-74
2021/04/11 16:07:40;;;;;;;3.35;3.00;;;12.10;99.50;;;;;;6271494;28;20105;-75
2021/04/11 16:10:44;;;;;;;4.57;3.22;;;12.10;99.90;;;;;;6271419;28;20175;-75
2021/04/11 16:13:54;;;;;;;4.05;3.65;;;12.00;99.90;;;;;;6271121;28;20049;-74
2021/04/11 16:17:13;;;;;;;7.50;5.25;;;12.00;99.90;;;;;;6270881;28;20429;-74
2021/04/11 16:20:18;;;;;;;4.05;3.75;;;11.90;99.90;;;;;;6255683;28;20050;-74
2021/04/11 16:23:37;;;;;;;8.95;8.13;;;11.90;99.90;;;;;;6246494;28;20140;-74
2021/04/11 16:26:42;;;;;;;10.38;9.55;;;11.90;99.90;;;;;;6246872;28;20081;-75
2021/04/11 16:29:53;;;;;;;13.43;12.32;;;11.80;99.90;;;;;;6246289;28;20446;-75
2021/04/11 16:33:09;;;;;;;9.95;8.77;;;11.70;99.90;;;;;;6245969;28;20121;-74
2021/04/11 16:36:19;;;;;;;12.25;10.45;;;11.70;99.90;;;;;;6246228;28;20048;-75
2021/04/11 16:39:30;;;;;;;5.82;5.32;;;11.70;99.90;;;;;;6246091;28;20132;-75
2021/04/11 16:42:40;;;;;;;3.67;3.38;;;11.70;99.90;;;;;;6246616;28;20140;-77